Terminal Aerodrome Forecast
Issued by NWS Jacksonville, FL

Current Version | Previous Version | Text Only | Print | Product List | Glossary On
Versions: 1 2 3 4 5 6 7 8 9 10 11 12 13 14 15 16 17 18 19 20 21 22 23 24 25 26 27
000
FTUS42 KJAX 041720
TAFSSI
TAF
KSSI 041720Z 0418/0518 18009KT P6SM SCT030 BKN035
     FM050100 19006KT P6SM SCT030 SCT250
     FM050700 20004KT 2SM BR BKN009
     FM051400 21007KT P6SM SCT015 SCT250=

USA.gov is the U.S. government's official web portal to all federal, state and local government web resources and services.